Time;durP1;ratioP1;P1;durP2;ratioP2;P2;SDS_P1;SDS_P2;PMS_P1;PMS_P2;Temp;Humidity;BMP_temperature;BMP_pressure;BME280_temperature;BME280_humidity;BME280_pressure;Samples;Min_cycle;Max_cycle;Signal;HPM_P1;HPM_P2
2023/09/21 00:00:20;;;;;;;2.85;1.88;;;;;;;16.17;83.20;100326.78;5029221;28;20040;-75
2023/09/21 00:02:50;;;;;;;4.93;1.77;;;;;;;16.16;83.00;100319.78;5033355;28;20038;-74
2023/09/21 00:05:24;;;;;;;3.45;1.55;;;;;;;16.14;82.93;100320.09;5021276;28;20135;-77
2023/09/21 00:07:57;;;;;;;3.13;1.73;;;;;;;16.08;83.45;100319.47;5033807;28;20029;-75
2023/09/21 00:10:23;;;;;;;3.17;2.03;;;;;;;16.06;83.45;100321.69;5017990;28;20107;-77
2023/09/21 00:12:49;;;;;;;2.40;1.70;;;;;;;16.03;83.84;100314.22;5044441;28;20040;-74
2023/09/21 00:15:19;;;;;;;2.53;1.88;;;;;;;15.98;84.14;100318.97;5025341;28;20516;-74
2023/09/21 00:17:46;;;;;;;4.53;1.95;;;;;;;15.97;83.93;100318.16;5022658;28;20048;-76
2023/09/21 00:20:30;;;;;;;2.55;1.80;;;;;;;15.99;83.82;100307.88;5025330;28;20032;-75
2023/09/21 00:22:59;;;;;;;5.15;1.70;;;;;;;15.98;83.55;100311.66;5033766;28;20769;-76
2023/09/21 00:25:44;;;;;;;3.33;1.88;;;;;;;15.96;83.60;100308.47;5025797;28;20036;-77
2023/09/21 00:28:14;;;;;;;3.70;1.75;;;;;;;15.95;83.95;100301.50;5035377;28;20033;-77
2023/09/21 00:30:41;;;;;;;2.92;2.00;;;;;;;15.92;84.08;100312.94;5035956;28;20073;-75
2023/09/21 00:33:11;;;;;;;4.45;1.80;;;;;;;15.85;83.84;100301.81;5020189;28;20790;-75
2023/09/21 00:35:39;;;;;;;3.78;2.08;;;;;;;15.80;84.31;100300.03;5038963;28;20041;-76
2023/09/21 00:38:14;;;;;;;3.20;1.80;;;;;;;15.81;84.37;100309.72;5033432;28;20747;-76
2023/09/21 00:40:42;;;;;;;2.85;2.10;;;;;;;15.79;84.59;100300.38;5021680;28;20524;-77
2023/09/21 00:43:20;;;;;;;3.63;1.90;;;;;;;15.78;84.37;100304.97;5033012;28;20138;-75
2023/09/21 00:45:57;;;;;;;7.25;2.15;;;;;;;15.75;84.13;100285.91;5034986;28;20037;-77
2023/09/21 00:48:33;;;;;;;2.38;1.65;;;;;;;15.78;84.33;100287.94;5009516;28;20033;-76
2023/09/21 00:51:05;;;;;;;3.60;2.00;;;;;;;15.77;84.23;100297.16;5036913;28;20506;-76
2023/09/21 00:53:32;;;;;;;3.25;2.10;;;;;;;15.72;84.42;100294.63;5053033;28;20125;-77
2023/09/21 00:56:09;;;;;;;3.28;1.70;;;;;;;15.68;84.33;100293.66;5044358;28;20029;-75
2023/09/21 00:58:39;;;;;;;3.47;2.20;;;;;;;15.62;85.07;100289.50;5038070;28;20038;-76
2023/09/21 01:01:22;;;;;;;3.78;2.17;;;;;;;15.53;85.11;100287.56;5053924;28;20670;-75
2023/09/21 01:03:59;;;;;;;3.17;1.90;;;;;;;15.50;85.23;100280.06;5022730;28;20040;-77
2023/09/21 01:06:27;;;;;;;3.30;2.30;;;;;;;15.48;85.24;100278.81;5041308;28;20040;-78
2023/09/21 01:08:54;;;;;;;5.22;2.20;;;;;;;15.45;85.99;100287.56;5025056;28;20032;-77
2023/09/21 01:11:22;;;;;;;3.28;2.20;;;;;;;15.44;85.59;100277.84;5037118;28;20111;-76
2023/09/21 01:13:48;;;;;;;4.22;1.80;;;;;;;15.39;85.71;100278.78;5020548;28;20049;-77
2023/09/21 01:16:17;;;;;;;2.63;1.63;;;;;;;15.35;85.77;100280.53;5019561;28;20226;-76
2023/09/21 01:18:46;;;;;;;2.92;1.80;;;;;;;15.31;86.06;100266.09;5024703;28;20063;-76
2023/09/21 01:21:15;;;;;;;4.32;2.40;;;;;;;15.28;86.09;100264.00;5019157;28;20557;-77
2023/09/21 01:23:45;;;;;;;3.58;2.20;;;;;;;15.24;86.29;100269.22;5009788;28;20040;-75
2023/09/21 01:26:19;;;;;;;3.63;2.22;;;;;;;15.22;86.54;100271.41;5023239;28;20084;-77
2023/09/21 01:28:50;;;;;;;2.72;1.92;;;;;;;15.21;86.84;100271.75;5050960;28;20086;-76
2023/09/21 01:31:17;;;;;;;3.75;2.28;;;;;;;15.20;86.72;100275.56;5019186;28;20723;-77
2023/09/21 01:33:44;;;;;;;3.00;2.10;;;;;;;15.15;86.94;100271.09;5023818;28;20044;-78
2023/09/21 01:36:15;;;;;;;3.97;2.00;;;;;;;15.15;86.62;100260.28;5036851;28;20060;-77
2023/09/21 01:38:46;;;;;;;2.92;2.10;;;;;;;15.12;86.69;100265.53;5020474;28;20039;-77
2023/09/21 01:41:14;;;;;;;3.85;2.13;;;;;;;15.08;86.58;100261.84;5034248;28;20556;-76
2023/09/21 01:43:42;;;;;;;3.58;2.28;;;;;;;15.06;86.87;100261.38;5004457;28;20044;-77
2023/09/21 01:46:08;;;;;;;4.30;2.33;;;;;;;15.04;87.02;100259.00;5006155;28;20040;-76
2023/09/21 01:48:35;;;;;;;4.78;2.22;;;;;;;15.00;86.74;100249.91;5020428;28;20044;-77
2023/09/21 01:51:02;;;;;;;4.38;2.17;;;;;;;14.97;86.97;100242.44;5037594;28;20090;-76
2023/09/21 01:53:28;;;;;;;3.30;1.98;;;;;;;14.94;87.25;100246.56;5033808;28;20049;-75
2023/09/21 01:55:54;;;;;;;;;;;;;;;14.94;87.49;100249.25;5022406;28;20029;-77
2023/09/21 01:58:24;;;;;;;2.60;1.80;;;;;;;14.92;87.13;100242.59;5021845;28;19920;-76
2023/09/21 02:00:51;;;;;;;2.83;1.98;;;;;;;14.89;87.66;100246.69;5020448;28;20123;-76
2023/09/21 02:03:27;;;;;;;4.22;1.90;;;;;;;14.93;87.28;100242.28;5053513;28;20131;-76
2023/09/21 02:05:53;;;;;;;3.85;1.92;;;;;;;14.93;87.32;100242.28;5067055;28;20637;-77
2023/09/21 02:08:19;;;;;;;;;;;;;;;14.95;87.46;100237.38;5036452;28;20669;-77
2023/09/21 02:10:45;;;;;;;3.30;2.08;;;;;;;14.92;87.43;100231.81;5041199;28;19927;-75
2023/09/21 02:13:11;;;;;;;3.50;1.73;;;;;;;14.93;87.60;100236.88;5024152;28;20059;-77
2023/09/21 02:15:39;;;;;;;2.80;1.98;;;;;;;14.93;87.29;100231.50;5055876;28;20048;-76
2023/09/21 02:18:09;;;;;;;3.03;1.70;;;;;;;14.94;87.06;100221.50;5037818;28;20108;-77
2023/09/21 02:20:38;;;;;;;4.78;2.25;;;;;;;14.93;87.27;100226.09;5036137;28;20040;-75
2023/09/21 02:23:05;;;;;;;3.22;2.00;;;;;;;14.94;87.09;100218.81;5036417;28;20083;-76
2023/09/21 02:25:34;;;;;;;3.13;2.08;;;;;;;14.91;86.95;100205.97;5037788;28;20040;-74
2023/09/21 02:28:07;;;;;;;2.67;1.85;;;;;;;14.92;87.32;100196.75;5035479;28;20753;-75
2023/09/21 02:30:33;;;;;;;3.08;1.90;;;;;;;14.92;86.95;100202.94;5051916;28;20037;-75
2023/09/21 02:32:59;;;;;;;;;;;;;;;14.92;87.16;100202.16;5039043;28;20052;-76
2023/09/21 02:35:29;;;;;;;3.85;1.90;;;;;;;14.89;86.71;100195.47;5019060;28;19917;-77
2023/09/21 02:37:56;;;;;;;2.97;2.00;;;;;;;14.87;86.75;100195.00;5006140;28;20037;-77
2023/09/21 02:40:24;;;;;;;2.63;2.03;;;;;;;14.85;86.97;100191.03;5054875;28;20038;-76
2023/09/21 02:42:53;;;;;;;3.10;1.80;;;;;;;14.81;87.09;100190.84;5006809;28;20137;-76
2023/09/21 02:45:23;;;;;;;3.10;1.90;;;;;;;14.81;87.16;100188.16;5022670;28;20071;-75
2023/09/21 02:47:51;;;;;;;5.65;2.28;;;;;;;14.81;87.07;100180.06;5021634;28;20186;-75
2023/09/21 02:50:27;;;;;;;3.67;2.10;;;;;;;14.81;87.15;100179.25;5003626;28;20047;-77
2023/09/21 02:52:57;;;;;;;3.17;2.00;;;;;;;14.81;87.13;100174.66;5051983;28;20044;-76
2023/09/21 02:55:26;;;;;;;5.43;1.88;;;;;;;14.84;86.85;100184.06;5019815;28;20064;-78
2023/09/21 02:57:56;;;;;;;4.55;1.75;;;;;;;14.83;86.88;100177.03;5021758;28;20502;-77
2023/09/21 03:03:05;;;;;;;6.38;2.00;;;;;;;14.78;86.94;100178.00;5022287;28;20037;-77
2023/09/21 03:05:38;;;;;;;4.30;2.05;;;;;;;14.75;86.82;100171.31;5023972;28;20060;-76
2023/09/21 03:08:08;;;;;;;3.03;1.88;;;;;;;14.74;87.19;100168.94;5036075;28;20037;-76
2023/09/21 03:10:38;;;;;;;3.05;2.25;;;;;;;14.72;87.43;100160.38;5021563;28;20049;-77
2023/09/21 03:13:05;;;;;;;2.60;1.98;;;;;;;14.73;87.17;100161.97;5036341;28;20045;-77
2023/09/21 03:15:42;;;;;;;3.60;2.10;;;;;;;14.75;86.93;100154.34;5055723;28;20059;-75
2023/09/21 03:18:08;;;;;;;2.30;1.65;;;;;;;14.77;86.93;100149.47;5033698;28;20048;-76
2023/09/21 03:20:37;;;;;;;;;;;;;;;14.81;87.11;100146.91;5020434;28;20040;-76
2023/09/21 03:23:09;;;;;;;4.07;2.20;;;;;;;14.78;86.79;100148.34;5018377;28;19928;-75
2023/09/21 03:25:41;;;;;;;2.80;2.05;;;;;;;14.78;86.83;100153.75;5021156;28;20041;-76
2023/09/21 03:28:13;;;;;;;;;;;;;;;14.78;86.93;100153.75;5054259;28;20036;-78
2023/09/21 03:30:45;;;;;;;5.82;2.20;;;;;;;14.76;86.50;100155.94;5021719;28;19916;-76
2023/09/21 03:33:14;;;;;;;4.10;1.80;;;;;;;14.72;86.77;100144.19;5023146;28;20069;-75
2023/09/21 03:35:40;;;;;;;4.18;2.15;;;;;;;14.71;86.58;100148.00;5036080;28;20593;-76
2023/09/21 03:38:06;;;;;;;;;;;;;;;14.69;86.94;100140.22;5073434;28;20021;-76
2023/09/21 03:40:33;;;;;;;3.33;1.60;;;;;;;14.69;86.65;100142.91;5039414;28;19922;-74
2023/09/21 03:42:59;;;;;;;4.07;2.00;;;;;;;14.69;86.81;100155.59;5054193;28;20060;-75
2023/09/21 03:45:25;;;;;;;3.10;2.10;;;;;;;14.70;86.77;100146.41;5038421;28;20565;-79
2023/09/21 03:47:51;;;;;;;;;;;;;;;14.71;86.80;100139.91;5023200;28;20036;-77
2023/09/21 03:50:18;;;;;;;3.40;2.03;;;;;;;14.68;86.73;100133.22;5042142;28;20409;-75
2023/09/21 03:52:45;;;;;;;3.63;2.22;;;;;;;14.70;86.37;100135.63;5041465;28;20112;-76
2023/09/21 03:55:19;;;;;;;5.15;1.98;;;;;;;14.69;86.36;100140.22;5039343;28;20052;-76
2023/09/21 03:57:50;;;;;;;3.80;2.35;;;;;;;14.69;86.65;100136.72;5055656;28;20033;-79
2023/09/21 04:00:38;;;;;;;3.25;2.00;;;;;;;14.67;86.56;100130.84;5042045;28;20600;-75
2023/09/21 04:03:06;;;;;;;2.50;1.52;;;;;;;14.66;86.46;100121.19;5026003;28;20045;-76
2023/09/21 04:06:02;;;;;;;3.70;1.85;;;;;;;14.66;86.59;100115.78;5066553;28;20033;-76
2023/09/21 04:08:27;;;;;;;2.80;1.80;;;;;;;14.67;86.56;100123.56;5040137;28;20037;-76
2023/09/21 04:10:57;;;;;;;;;;;;;;;14.66;86.82;100129.28;5039665;28;20037;-75
2023/09/21 04:13:40;;;;;;;4.32;1.88;;;;;;;14.62;86.92;100118.31;5052729;28;19917;-75
2023/09/21 04:16:08;;;;;;;;;;;;;;;14.66;86.67;100113.09;5075211;28;20041;-76
2023/09/21 04:18:34;;;;;;;3.78;1.88;;;;;;;14.64;86.77;100112.63;5039096;28;20024;-75
2023/09/21 04:21:00;;;;;;;4.45;1.98;;;;;;;14.63;86.64;100117.22;5022477;28;20410;-76
2023/09/21 04:23:28;;;;;;;3.38;2.00;;;;;;;14.63;86.54;100097.53;5069705;28;20040;-76
2023/09/21 04:25:55;;;;;;;3.42;2.10;;;;;;;14.62;86.64;100096.75;5033673;28;20135;-76
2023/09/21 04:28:22;;;;;;;2.65;1.80;;;;;;;14.61;86.69;100105.16;5022319;28;20037;-75
2023/09/21 04:30:48;;;;;;;5.40;2.30;;;;;;;14.57;86.86;100096.13;5032733;28;20458;-75
2023/09/21 04:33:13;;;;;;;;;;;;;;;14.58;86.80;100095.81;5044800;28;20040;-76
2023/09/21 04:35:39;;;;;;;3.17;2.10;;;;;;;14.59;86.84;100099.28;5039897;28;19923;-76
2023/09/21 04:38:04;;;;;;;;;;;;;;;14.58;86.65;100095.00;5024696;28;20495;-76
2023/09/21 04:40:30;;;;;;;3.33;1.73;;;;;;;14.55;86.81;100092.91;5038259;28;19917;-75
2023/09/21 04:42:56;;;;;;;2.90;1.73;;;;;;;14.55;86.55;100092.91;5039753;28;21716;-75
2023/09/21 04:45:26;;;;;;;3.53;1.98;;;;;;;14.54;86.84;100094.03;5043612;28;20064;-75
2023/09/21 04:47:58;;;;;;;5.40;2.22;;;;;;;14.54;86.53;100094.81;5040579;28;20620;-78
2023/09/21 04:50:24;;;;;;;;;;;;;;;14.57;86.73;100093.44;5050500;28;20037;-76
2023/09/21 04:52:50;;;;;;;4.28;2.33;;;;;;;14.55;86.86;100087.53;5023659;28;20512;-76
2023/09/21 04:55:18;;;;;;;4.25;1.92;;;;;;;14.53;86.84;100095.13;5039358;28;20033;-75
2023/09/21 04:57:46;;;;;;;2.80;2.13;;;;;;;14.54;86.64;100088.63;5026674;28;20060;-76
2023/09/21 05:00:14;;;;;;;2.97;2.00;;;;;;;14.53;86.80;100095.94;5074751;28;20025;-76
2023/09/21 05:02:41;;;;;;;3.58;2.00;;;;;;;14.53;86.62;100092.44;5025069;28;20434;-75
2023/09/21 05:05:07;;;;;;;3.95;1.88;;;;;;;14.48;86.53;100102.25;5072135;28;20032;-76
2023/09/21 05:07:35;;;;;;;;;;;;;;;14.47;86.66;100100.66;5039424;28;20033;-76
2023/09/21 05:10:03;;;;;;;3.88;2.00;;;;;;;14.48;86.78;100085.28;5023424;28;20737;-77
2023/09/21 05:12:29;;;;;;;3.80;1.95;;;;;;;14.47;86.85;100095.28;5038182;28;20502;-75
2023/09/21 05:14:54;;;;;;;;;;;;;;;14.48;87.24;100096.84;5021874;28;20035;-75
2023/09/21 05:17:21;;;;;;;2.90;2.10;;;;;;;14.47;86.96;100092.56;5036630;28;20344;-75
2023/09/21 05:19:46;;;;;;;4.38;2.40;;;;;;;14.51;86.76;100097.38;5036912;28;20033;-76
2023/09/21 05:22:12;;;;;;;;;;;;;;;14.51;86.84;100090.06;5041585;28;20786;-77
2023/09/21 05:24:39;;;;;;;2.97;1.67;;;;;;;14.51;86.86;100086.59;5039725;28;19955;-78
2023/09/21 05:27:06;;;;;;;3.72;1.83;;;;;;;14.54;86.72;100084.03;5039895;28;20039;-75
2023/09/21 05:29:32;;;;;;;3.92;2.00;;;;;;;14.56;86.66;100086.41;5040335;28;20817;-77
2023/09/21 05:31:57;;;;;;;;;;;;;;;14.58;86.59;100086.94;5038425;28;20040;-76
2023/09/21 05:34:24;;;;;;;2.95;1.80;;;;;;;14.59;86.93;100075.03;5072074;28;20467;-74
2023/09/21 05:36:51;;;;;;;3.63;2.30;;;;;;;14.60;86.62;100076.63;5037445;28;20094;-75
2023/09/21 05:39:17;;;;;;;4.70;2.05;;;;;;;14.58;86.48;100074.25;5041771;28;20504;-74
2023/09/21 05:41:52;;;;;;;4.25;1.88;;;;;;;14.61;86.57;100080.91;5039787;28;20040;-75
2023/09/21 05:44:21;;;;;;;3.85;2.22;;;;;;;14.61;86.30;100083.59;5041314;28;20029;-75
2023/09/21 05:46:49;;;;;;;3.13;2.17;;;;;;;14.64;86.12;100082.97;5037945;28;20029;-75
2023/09/21 05:49:22;;;;;;;3.70;1.90;;;;;;;14.64;85.87;100077.59;5004593;28;20078;-77
2023/09/21 05:51:59;;;;;;;3.67;2.53;;;;;;;14.66;85.87;100072.69;5038209;28;20040;-75
2023/09/21 05:54:26;;;;;;;4.20;1.80;;;;;;;14.68;85.97;100073.94;5023829;28;20042;-76
2023/09/21 05:56:52;;;;;;;3.35;2.10;;;;;;;14.70;85.94;100069.06;5020040;28;20029;-75
2023/09/21 05:59:19;;;;;;;3.55;2.33;;;;;;;14.74;86.03;100061.13;5024471;28;20624;-76
2023/09/21 06:01:45;;;;;;;4.85;2.28;;;;;;;14.76;86.09;100066.97;5039306;28;20094;-77
2023/09/21 06:04:12;;;;;;;3.45;2.00;;;;;;;14.80;85.63;100075.25;5042713;28;20037;-77
2023/09/21 06:06:38;;;;;;;4.05;2.03;;;;;;;14.87;85.47;100065.59;5023353;28;20513;-77
2023/09/21 06:09:07;;;;;;;4.15;2.10;;;;;;;14.93;85.44;100072.44;5022162;28;20410;-77
2023/09/21 06:11:33;;;;;;;4.45;1.92;;;;;;;14.99;85.18;100067.69;5034447;28;20044;-77
2023/09/21 06:13:59;;;;;;;;;;;;;;;15.06;84.99;100068.00;5052417;28;20037;-76
2023/09/21 06:16:26;;;;;;;3.60;2.10;;;;;;;15.14;84.59;100063.72;5041341;28;19956;-76
2023/09/21 06:18:51;;;;;;;;;;;;;;;15.23;84.08;100061.81;5037589;28;20163;-77
2023/09/21 06:21:17;;;;;;;4.20;2.20;;;;;;;15.32;83.93;100061.84;5021577;28;19966;-76
2023/09/21 06:23:44;;;;;;;2.88;1.70;;;;;;;15.42;84.17;100059.59;5022227;28;20048;-76
2023/09/21 06:26:15;;;;;;;4.05;2.20;;;;;;;15.52;83.36;100053.91;5036917;28;20037;-75
2023/09/21 06:28:47;;;;;;;5.07;1.83;;;;;;;15.67;82.65;100062.63;5042667;28;20037;-75
2023/09/21 06:31:13;;;;;;;;;;;;;;;15.77;82.51;100054.19;5035719;28;20147;-77
2023/09/21 06:33:40;;;;;;;4.80;1.80;;;;;;;15.89;82.11;100054.31;5037735;28;19916;-75
2023/09/21 06:36:08;;;;;;;3.30;1.90;;;;;;;16.02;81.54;100053.34;5031786;28;20516;-75
2023/09/21 06:38:34;;;;;;;4.50;2.05;;;;;;;16.14;80.69;100052.69;5040681;28;20025;-76
2023/09/21 06:41:00;;;;;;;;;;;;;;;16.24;80.55;100054.22;5044745;28;20036;-77
2023/09/21 06:43:29;;;;;;;3.28;1.88;;;;;;;16.32;79.61;100048.81;5051750;28;20317;-77
2023/09/21 06:45:55;;;;;;;3.55;2.33;;;;;;;16.42;80.10;100041.44;5021652;28;20089;-76
2023/09/21 06:48:20;;;;;;;4.38;2.28;;;;;;;16.48;79.38;100046.34;5057138;28;20703;-78
2023/09/21 06:50:46;;;;;;;3.25;1.98;;;;;;;16.60;79.46;100048.34;5051444;28;20082;-77
2023/09/21 06:53:12;;;;;;;4.72;2.33;;;;;;;16.68;78.92;100039.38;5040545;28;20554;-76
2023/09/21 06:55:37;;;;;;;4.20;2.30;;;;;;;16.77;78.86;100042.06;5041219;28;20100;-76
2023/09/21 06:58:03;;;;;;;5.00;2.05;;;;;;;16.83;78.67;100040.75;5015376;28;20064;-76
2023/09/21 07:00:29;;;;;;;3.92;2.00;;;;;;;16.85;78.08;100028.47;5039295;28;20025;-76
2023/09/21 07:02:54;;;;;;;4.13;2.22;;;;;;;16.95;78.70;100040.84;5034922;28;20043;-75
2023/09/21 07:05:20;;;;;;;;;;;;;;;17.03;78.02;100031.06;5039688;28;20036;-75
2023/09/21 07:07:46;;;;;;;3.22;1.90;;;;;;;17.12;77.85;100032.59;5036485;28;20357;-78
2023/09/21 07:10:11;;;;;;;4.75;2.33;;;;;;;17.24;78.40;100029.16;5037423;28;20064;-77
2023/09/21 07:12:39;;;;;;;3.50;2.33;;;;;;;17.31;77.23;100034.03;5040157;28;20059;-74
2023/09/21 07:15:07;;;;;;;6.40;2.40;;;;;;;17.42;77.46;100032.50;5022657;28;20055;-76
2023/09/21 07:17:34;;;;;;;5.40;2.30;;;;;;;17.51;77.16;100029.72;5040735;28;20037;-75
2023/09/21 07:20:02;;;;;;;3.78;2.08;;;;;;;17.60;76.88;100025.78;5024869;28;20334;-74
2023/09/21 07:22:28;;;;;;;3.67;2.10;;;;;;;17.70;75.63;100022.69;5024063;28;20417;-77
2023/09/21 07:24:54;;;;;;;2.80;2.00;;;;;;;17.81;76.30;100019.56;5044603;28;20516;-75
2023/09/21 07:27:22;;;;;;;4.28;1.98;;;;;;;17.90;74.70;100018.34;5042499;28;20068;-75
2023/09/21 07:29:48;;;;;;;5.57;2.08;;;;;;;18.03;74.59;100031.94;5078423;28;20037;-74
2023/09/21 07:32:15;;;;;;;4.60;1.80;;;;;;;18.10;73.80;100022.09;5027917;28;20095;-77
2023/09/21 07:34:40;;;;;;;4.43;2.00;;;;;;;18.22;74.48;100018.59;5028598;28;20071;-77
2023/09/21 07:37:10;;;;;;;3.92;2.47;;;;;;;18.32;73.88;100020.09;5044717;28;20036;-77
2023/09/21 07:39:35;;;;;;;4.50;2.20;;;;;;;18.44;73.17;100022.81;5056265;28;20025;-75
2023/09/21 07:42:04;;;;;;;3.33;2.22;;;;;;;18.52;72.16;100016.47;5042650;28;20045;-76
2023/09/21 07:44:30;;;;;;;3.13;2.17;;;;;;;18.63;72.51;100016.78;5060097;28;20033;-76
2023/09/21 07:46:57;;;;;;;4.03;2.33;;;;;;;18.72;72.03;100010.16;5041750;28;20049;-77
2023/09/21 07:49:25;;;;;;;4.88;1.92;;;;;;;18.85;71.38;100008.19;5042398;28;20047;-76
2023/09/21 07:51:52;;;;;;;4.55;1.85;;;;;;;18.92;72.01;100011.13;5022199;28;20503;-77
2023/09/21 07:54:17;;;;;;;3.08;1.98;;;;;;;19.02;71.37;100013.34;5041870;28;20029;-77
2023/09/21 07:56:43;;;;;;;3.65;1.63;;;;;;;19.13;71.27;100007.44;5046228;28;20033;-76
2023/09/21 07:59:12;;;;;;;2.63;1.90;;;;;;;19.25;70.29;100005.47;5022916;28;20090;-76
2023/09/21 08:01:37;;;;;;;4.15;1.85;;;;;;;19.35;70.15;100001.47;5024333;28;20450;-75
2023/09/21 08:04:03;;;;;;;3.05;2.08;;;;;;;19.42;70.11;99998.16;5024193;28;20036;-76
2023/09/21 08:06:28;;;;;;;5.32;2.00;;;;;;;19.51;69.32;100001.50;5043574;28;20040;-78
2023/09/21 08:08:57;;;;;;;3.60;2.33;;;;;;;19.56;68.61;99999.31;5042200;28;20037;-75
2023/09/21 08:11:23;;;;;;;4.32;2.00;;;;;;;19.65;68.94;100001.16;5028023;28;20033;-75
2023/09/21 08:13:50;;;;;;;3.47;1.83;;;;;;;19.71;67.25;99992.38;5044741;28;20056;-77
2023/09/21 08:16:16;;;;;;;5.00;1.90;;;;;;;19.76;68.56;99994.81;5021487;28;20039;-75
2023/09/21 08:18:42;;;;;;;3.13;1.80;;;;;;;19.88;68.08;99989.31;5025716;28;20029;-78
2023/09/21 08:21:09;;;;;;;4.57;2.20;;;;;;;19.99;68.93;99999.69;5046822;28;20029;-77
2023/09/21 08:23:39;;;;;;;4.05;2.00;;;;;;;20.05;67.62;100000.97;5027251;28;20036;-76
2023/09/21 08:26:05;;;;;;;4.43;2.20;;;;;;;20.11;68.64;99999.56;5039623;28;20037;-77
2023/09/21 08:28:32;;;;;;;3.50;1.83;;;;;;;20.25;66.93;99996.41;5021099;28;20032;-77
2023/09/21 08:30:57;;;;;;;3.55;2.33;;;;;;;20.35;67.25;99991.22;5025104;28;20120;-76
2023/09/21 08:33:23;;;;;;;3.95;1.90;;;;;;;20.42;66.20;99991.38;5023600;28;20030;-76
2023/09/21 08:35:49;;;;;;;7.82;2.28;;;;;;;20.49;66.07;99995.44;5036381;28;20044;-76
2023/09/21 08:38:17;;;;;;;3.63;2.30;;;;;;;20.59;65.52;99987.53;5033853;28;20033;-77
2023/09/21 08:40:46;;;;;;;2.92;1.92;;;;;;;20.68;64.74;99987.34;5007693;28;20037;-76
2023/09/21 08:43:20;;;;;;;2.97;2.10;;;;;;;20.70;65.85;99980.38;5040782;28;20045;-77
2023/09/21 08:45:47;;;;;;;3.22;1.90;;;;;;;20.76;66.06;99988.28;5025628;28;20067;-77
2023/09/21 08:48:20;;;;;;;3.05;1.92;;;;;;;20.84;64.98;99987.28;5022906;28;20037;-77
2023/09/21 08:50:52;;;;;;;3.90;1.80;;;;;;;20.95;65.32;99982.84;5043056;28;20043;-78
2023/09/21 08:53:21;;;;;;;4.15;1.67;;;;;;;21.16;64.34;99988.72;5056703;28;20056;-77
2023/09/21 08:55:51;;;;;;;6.38;1.80;;;;;;;21.32;64.34;99983.22;5026804;28;20029;-74
2023/09/21 08:58:23;;;;;;;3.28;1.83;;;;;;;21.48;63.58;99985.88;5040760;28;20039;-76
2023/09/21 09:00:54;;;;;;;3.75;2.10;;;;;;;21.62;64.49;99986.13;5036654;28;20040;-76
2023/09/21 09:03:26;;;;;;;2.67;2.15;;;;;;;21.70;64.82;99981.56;5039271;28;20072;-77
2023/09/21 09:05:58;;;;;;;3.35;1.75;;;;;;;21.82;63.27;99983.34;5007961;28;20037;-77
2023/09/21 09:08:25;;;;;;;3.78;2.00;;;;;;;21.88;62.70;99977.22;5027493;28;20034;-78
2023/09/21 09:10:53;;;;;;;2.88;1.60;;;;;;;21.85;63.51;99977.94;5040098;28;20048;-76
2023/09/21 09:13:40;;;;;;;3.75;1.92;;;;;;;21.77;63.93;99987.16;5027235;28;20051;-78
2023/09/21 09:16:08;;;;;;;8.43;2.60;;;;;;;21.69;62.38;99980.00;5038427;28;20055;-78
2023/09/21 09:18:36;;;;;;;2.97;1.83;;;;;;;21.66;62.99;99980.72;5041727;28;20055;-77
2023/09/21 09:21:01;;;;;;;3.17;2.15;;;;;;;21.65;63.85;99973.69;5055908;28;20044;-76
2023/09/21 09:23:27;;;;;;;4.75;1.80;;;;;;;21.80;63.51;99978.25;5037419;28;20041;-79
2023/09/21 09:25:54;;;;;;;2.92;1.90;;;;;;;21.96;62.33;99976.19;5041348;28;20037;-79
2023/09/21 09:28:21;;;;;;;3.42;1.70;;;;;;;22.03;63.59;99970.84;5040793;28;20040;-78
2023/09/21 09:30:48;;;;;;;3.70;1.67;;;;;;;22.06;62.16;99972.03;5070632;28;20055;-76
2023/09/21 09:33:15;;;;;;;3.03;2.20;;;;;;;22.06;61.54;99964.66;5024097;28;20037;-76
2023/09/21 09:35:41;;;;;;;3.28;1.90;;;;;;;22.13;61.96;99960.50;5021804;28;20039;-77
2023/09/21 09:38:11;;;;;;;4.03;2.45;;;;;;;22.21;62.13;99960.22;5039280;28;20029;-80
2023/09/21 09:40:40;;;;;;;3.60;1.98;;;;;;;22.33;62.14;99948.34;5032481;28;20486;-78
2023/09/21 09:43:06;;;;;;;5.45;2.50;;;;;;;22.41;61.86;99944.53;5066253;28;20036;-79
2023/09/21 09:45:37;;;;;;;3.20;2.05;;;;;;;22.50;62.16;99947.81;5038820;28;20418;-78
2023/09/21 09:48:11;;;;;;;3.83;2.22;;;;;;;22.51;61.23;99938.47;5025799;28;20494;-76
2023/09/21 09:50:41;;;;;;;2.67;1.70;;;;;;;22.49;60.56;99932.59;5018638;28;20752;-78
2023/09/21 09:53:13;;;;;;;5.53;2.47;;;;;;;22.48;61.18;99936.47;5053346;28;20029;-77
2023/09/21 09:55:42;;;;;;;4.03;1.90;;;;;;;22.50;60.98;99936.91;5018707;28;20036;-77
2023/09/21 09:58:15;;;;;;;3.20;1.95;;;;;;;22.59;61.56;99940.13;5043572;28;20521;-78
2023/09/21 10:00:44;;;;;;;4.07;1.80;;;;;;;22.79;61.16;99927.13;5009647;28;20029;-80
2023/09/21 10:03:11;;;;;;;3.92;2.15;;;;;;;23.02;60.68;99924.28;5039039;28;20043;-77
2023/09/21 10:05:39;;;;;;;3.40;1.92;;;;;;;23.15;59.88;99922.88;5040527;28;20033;-77
2023/09/21 10:08:07;;;;;;;6.05;2.30;;;;;;;23.13;56.93;99930.66;5023927;28;20132;-77
2023/09/21 10:10:39;;;;;;;3.33;1.92;;;;;;;23.16;58.36;99915.47;5026159;28;20548;-78
2023/09/21 10:13:06;;;;;;;2.92;2.08;;;;;;;23.22;56.80;99910.44;5041270;28;20033;-77
2023/09/21 10:15:33;;;;;;;4.47;1.88;;;;;;;23.37;57.88;99923.09;5039486;28;20029;-78
2023/09/21 10:18:01;;;;;;;3.00;1.80;;;;;;;23.48;60.65;99913.06;5042995;28;20075;-77
2023/09/21 10:20:32;;;;;;;4.47;2.30;;;;;;;23.54;57.98;99914.28;5040826;28;20513;-77
2023/09/21 10:23:01;;;;;;;3.40;1.70;;;;;;;23.68;57.62;99910.91;5061096;28;20041;-78
2023/09/21 10:25:44;;;;;;;3.13;1.60;;;;;;;23.75;55.98;99915.66;5043383;28;20079;-77
2023/09/21 10:28:28;;;;;;;7.00;2.15;;;;;;;23.82;54.72;99907.50;5048611;28;20502;-78
2023/09/21 10:31:06;;;;;;;3.50;1.95;;;;;;;23.88;55.12;99900.53;5037742;28;20037;-77
2023/09/21 10:34:04;;;;;;;3.20;1.67;;;;;;;23.99;54.63;99898.66;4999039;28;20483;-77
2023/09/21 10:36:31;;;;;;;3.53;1.60;;;;;;;24.05;54.30;99899.06;5041474;28;20054;-79
2023/09/21 10:39:05;;;;;;;9.23;2.05;;;;;;;24.12;56.26;99891.72;5054295;28;20083;-76
2023/09/21 10:41:32;;;;;;;6.18;2.03;;;;;;;24.25;54.50;99886.72;5012796;28;20051;-76
2023/09/21 10:44:02;;;;;;;3.83;1.70;;;;;;;24.22;52.78;99890.97;5011211;28;20407;-77
2023/09/21 10:46:34;;;;;;;3.28;1.77;;;;;;;24.32;53.14;99889.50;5039272;28;20090;-78
2023/09/21 10:49:09;;;;;;;3.85;1.77;;;;;;;24.47;54.85;99887.63;5026287;28;20028;-77
2023/09/21 10:51:40;;;;;;;3.10;1.90;;;;;;;24.65;54.28;99884.94;5033574;28;20037;-76
2023/09/21 10:54:13;;;;;;;3.90;2.50;;;;;;;24.75;52.92;99885.00;5041450;28;20035;-79
2023/09/21 10:56:41;;;;;;;2.60;1.65;;;;;;;24.78;53.72;99889.69;5071173;28;20033;-77
2023/09/21 10:59:08;;;;;;;4.45;1.98;;;;;;;24.89;52.79;99881.53;5041007;28;20132;-78
2023/09/21 11:01:39;;;;;;;2.28;1.40;;;;;;;24.98;51.96;99883.88;5041555;28;20040;-77
2023/09/21 11:04:05;;;;;;;2.50;1.88;;;;;;;25.00;51.53;99873.34;5006333;28;20552;-77
2023/09/21 11:06:31;;;;;;;3.83;1.73;;;;;;;24.95;50.83;99871.75;5039422;28;20029;-80
2023/09/21 11:08:57;;;;;;;3.20;1.58;;;;;;;25.10;52.05;99882.78;5026627;28;20039;-75
2023/09/21 11:11:25;;;;;;;2.53;1.70;;;;;;;25.17;50.98;99867.13;5002481;28;20506;-78
2023/09/21 11:13:54;;;;;;;3.00;1.50;;;;;;;25.20;52.16;99866.38;5020855;28;20104;-77
2023/09/21 11:16:21;;;;;;;4.18;2.47;;;;;;;25.24;53.39;99877.31;5017331;28;20071;-78
2023/09/21 11:18:53;;;;;;;4.18;1.70;;;;;;;25.22;54.33;99874.19;5024919;28;20025;-76
2023/09/21 11:21:22;;;;;;;3.80;1.90;;;;;;;25.26;50.88;99870.25;5040801;28;20072;-79
2023/09/21 11:23:49;;;;;;;4.43;1.40;;;;;;;25.32;51.15;99867.94;5037331;28;20098;-77
2023/09/21 11:26:15;;;;;;;2.35;1.73;;;;;;;25.24;51.15;99869.09;5041205;28;20037;-78
2023/09/21 11:28:42;;;;;;;2.47;1.20;;;;;;;25.18;50.29;99862.44;5042751;28;20075;-76
2023/09/21 11:31:08;;;;;;;3.60;2.03;;;;;;;25.22;51.25;99858.53;5040773;28;20032;-79
2023/09/21 11:33:35;;;;;;;4.50;1.35;;;;;;;25.24;50.22;99856.19;5039908;28;20112;-76
2023/09/21 11:36:04;;;;;;;2.58;1.40;;;;;;;25.25;51.64;99856.97;5023724;28;20033;-76
2023/09/21 11:38:34;;;;;;;2.47;1.63;;;;;;;25.25;52.00;99846.78;5042586;28;20538;-77
2023/09/21 11:41:00;;;;;;;3.05;1.55;;;;;;;25.17;52.29;99850.69;5021201;28;20036;-76